Mission, Canada
Current Conditions -  °F | °C
As of 12:22 PM on Saturday 20 Dec 2014 (Local Time) from CYXX Reporting Station
Light Rain Light Rain  
Wind Chill:   Ceiling: 4000
Heat Index:   Visibility: 20mi
Dew Point:   Wind: 13mph
Humidity: 81%   Direction: 60°ENE
Pressure: 29.53"   Gusts: NA
Location:  49.13°N, 122.3°W
Report Text: CYXX 202022Z 06011KT 20SM -RA FEW015 OVC040 07/04 A2953 RMK SF1SC7 SLP000
Loading
Personal Weather Stations






























Interactive Weather Map New forecast layout! Learn more

10-Day Weather Forecast

Advertisements
Track Severe Weather on mobile